Time;durP1;ratioP1;P1;durP2;ratioP2;P2;SDS_P1;SDS_P2;PMS_P1;PMS_P2;Temp;Humidity;BMP_temperature;BMP_pressure;BME280_temperature;BME280_humidity;BME280_pressure;Samples;Min_cycle;Max_cycle;Signal;HPM_P1;HPM_P2
2023/05/27 00:02:19;;;;;;;12.43;6.03;;;9.90;99.90;;;;;;5048930;28;20313;-58
2023/05/27 00:04:47;;;;;;;12.43;6.53;;;9.80;99.90;;;;;;5052711;28;20256;-58
2023/05/27 00:07:15;;;;;;;11.40;4.60;;;9.80;99.90;;;;;;5049114;28;20218;-58
2023/05/27 00:09:43;;;;;;;12.27;5.00;;;9.80;99.90;;;;;;5049028;28;20579;-58
2023/05/27 00:12:11;;;;;;;9.67;4.70;;;9.80;99.90;;;;;;5049120;28;20230;-59
2023/05/27 00:14:41;;;;;;;10.03;4.20;;;9.70;99.90;;;;;;5048910;28;20237;-58
2023/05/27 00:17:13;;;;;;;9.17;3.87;;;9.70;99.90;;;;;;5049006;28;20220;-58
2023/05/27 00:19:42;;;;;;;10.20;3.93;;;9.70;99.90;;;;;;5052490;28;20256;-58
2023/05/27 00:22:10;;;;;;;8.43;3.40;;;9.70;99.90;;;;;;5066786;28;20265;-58
2023/05/27 00:24:39;;;;;;;8.83;3.33;;;9.60;99.90;;;;;;5068942;28;20580;-58
2023/05/27 00:27:07;;;;;;;10.67;3.50;;;9.60;99.90;;;;;;5061458;28;20224;-58
2023/05/27 00:29:36;;;;;;;8.90;3.40;;;9.60;99.90;;;;;;5068372;28;20700;-58
2023/05/27 00:32:06;;;;;;;7.97;3.30;;;9.60;99.90;;;;;;5065913;28;20323;-58
2023/05/27 00:34:34;;;;;;;10.23;3.60;;;9.50;99.90;;;;;;5050633;28;20225;-58
2023/05/27 00:37:02;;;;;;;8.50;3.10;;;9.50;99.90;;;;;;5055174;28;20253;-58
2023/05/27 00:39:30;;;;;;;9.40;3.47;;;9.50;99.90;;;;;;5055113;28;20222;-58
2023/05/27 00:41:59;;;;;;;8.93;3.20;;;9.50;99.90;;;;;;5054976;28;20221;-58
2023/05/27 00:44:27;;;;;;;8.57;3.13;;;9.40;99.90;;;;;;5055202;28;20283;-58
2023/05/27 00:46:55;;;;;;;9.93;3.10;;;9.40;99.90;;;;;;5055191;28;20255;-58
2023/05/27 00:49:26;;;;;;;11.17;3.43;;;9.40;99.90;;;;;;5057273;28;20730;-58
2023/05/27 00:51:54;;;;;;;8.60;3.13;;;9.40;99.90;;;;;;5054808;28;20287;-58
2023/05/27 00:54:23;;;;;;;10.03;3.80;;;9.30;99.90;;;;;;5054781;28;20252;-58
2023/05/27 00:56:51;;;;;;;9.43;3.77;;;9.30;99.90;;;;;;5047972;28;20324;-58
2023/05/27 00:59:20;;;;;;;9.53;3.60;;;9.30;99.90;;;;;;5054811;28;20232;-58
2023/05/27 01:01:49;;;;;;;12.97;3.60;;;9.30;99.90;;;;;;5051433;28;20305;-58
2023/05/27 01:04:18;;;;;;;12.43;4.00;;;9.30;99.90;;;;;;5037171;28;20218;-58
2023/05/27 01:06:58;;;;;;;9.60;3.30;;;9.20;99.90;;;;;;5053103;28;20233;-58
2023/05/27 01:09:32;;;;;;;5.63;3.23;;;9.20;99.90;;;;;;5054618;28;20253;-58
2023/05/27 01:12:08;;;;;;;9.03;2.90;;;9.20;99.90;;;;;;5053231;28;20233;-58
2023/05/27 01:14:39;;;;;;;9.83;3.20;;;9.20;99.90;;;;;;5054587;28;20744;-58
2023/05/27 01:17:09;;;;;;;7.30;3.07;;;9.20;99.90;;;;;;5054611;28;20239;-59
2023/05/27 01:19:42;;;;;;;6.97;3.10;;;9.10;99.90;;;;;;5055733;28;20225;-57
2023/05/27 01:22:13;;;;;;;7.43;3.63;;;9.10;99.90;;;;;;5046448;28;20632;-58
2023/05/27 01:24:43;;;;;;;9.67;3.53;;;9.10;99.90;;;;;;5053001;28;20233;-59
2023/05/27 01:27:11;;;;;;;7.83;2.73;;;9.10;99.90;;;;;;5047140;28;20216;-58
2023/05/27 01:29:42;;;;;;;7.77;3.00;;;9.10;99.90;;;;;;5052645;28;20229;-58
2023/05/27 01:32:16;;;;;;;9.57;3.30;;;9.00;99.90;;;;;;5048093;28;20224;-58
2023/05/27 01:34:52;;;;;;;9.07;3.13;;;9.00;99.90;;;;;;5049211;28;21345;-58
2023/05/27 01:37:22;;;;;;;12.43;3.50;;;9.00;99.90;;;;;;5054213;28;20264;-59
2023/05/27 01:39:53;;;;;;;9.80;2.87;;;8.90;99.90;;;;;;5054151;28;20247;-59
2023/05/27 01:42:21;;;;;;;9.03;3.03;;;8.90;99.90;;;;;;5054199;28;20219;-60
2023/05/27 01:44:52;;;;;;;6.27;3.07;;;8.90;99.90;;;;;;5051766;28;20248;-58
2023/05/27 01:47:20;;;;;;;7.07;3.07;;;8.80;99.90;;;;;;5052776;28;20220;-58
2023/05/27 01:49:49;;;;;;;7.37;3.00;;;8.80;99.90;;;;;;5054725;28;20256;-58
2023/05/27 01:52:17;;;;;;;5.87;2.80;;;8.80;99.90;;;;;;5053835;28;20307;-59
2023/05/27 01:54:45;;;;;;;6.67;2.90;;;8.80;99.90;;;;;;5053760;28;20238;-58
2023/05/27 01:57:15;;;;;;;7.40;2.73;;;8.80;99.90;;;;;;5046658;28;20220;-58
2023/05/27 01:59:43;;;;;;;6.33;3.27;;;8.80;99.90;;;;;;5052497;28;20685;-57
2023/05/27 02:02:11;;;;;;;6.80;3.40;;;8.80;99.90;;;;;;5051998;28;20335;-58
2023/05/27 02:04:40;;;;;;;7.80;3.40;;;8.70;99.90;;;;;;5050229;28;20259;-58
2023/05/27 02:07:08;;;;;;;8.50;3.60;;;8.70;99.90;;;;;;5053517;28;20746;-58
2023/05/27 02:09:36;;;;;;;8.13;3.47;;;8.70;99.90;;;;;;5043545;28;20333;-58
2023/05/27 02:12:05;;;;;;;10.90;4.07;;;8.70;99.90;;;;;;5032344;28;20331;-58
2023/05/27 02:14:38;;;;;;;10.57;3.60;;;8.60;99.90;;;;;;5032134;28;20332;-58
2023/05/27 02:17:07;;;;;;;10.00;3.83;;;8.70;99.90;;;;;;5032235;28;20295;-58
2023/05/27 02:19:36;;;;;;;7.77;2.90;;;8.60;99.90;;;;;;5037008;28;20225;-58
2023/05/27 02:22:08;;;;;;;8.73;3.37;;;8.60;99.90;;;;;;5044226;28;20275;-58
2023/05/27 02:24:36;;;;;;;6.37;2.60;;;8.60;99.90;;;;;;5051919;28;20232;-58
2023/05/27 02:27:05;;;;;;;7.27;2.77;;;8.60;99.90;;;;;;5045069;28;20259;-58
2023/05/27 02:29:35;;;;;;;7.70;3.10;;;8.50;99.90;;;;;;5045203;28;20280;-58
2023/05/27 02:32:04;;;;;;;7.97;3.23;;;8.50;99.90;;;;;;5031479;28;20243;-58
2023/05/27 02:34:36;;;;;;;7.57;3.07;;;8.50;99.90;;;;;;5037389;28;20643;-58
2023/05/27 02:37:06;;;;;;;7.90;2.93;;;8.50;99.90;;;;;;5043886;28;20223;-58
2023/05/27 02:39:34;;;;;;;7.07;3.17;;;8.50;99.90;;;;;;5051705;28;20315;-58
2023/05/27 02:42:02;;;;;;;13.13;4.10;;;8.50;99.90;;;;;;5051477;28;20322;-58
2023/05/27 02:44:30;;;;;;;10.03;4.30;;;8.40;99.90;;;;;;5052453;28;20248;-58
2023/05/27 02:46:59;;;;;;;9.13;3.90;;;8.50;99.90;;;;;;5040925;28;20592;-58
2023/05/27 02:49:28;;;;;;;12.00;3.80;;;8.50;99.90;;;;;;5040310;28;20888;-58
2023/05/27 02:51:56;;;;;;;10.43;4.23;;;8.40;99.90;;;;;;5051842;28;20257;-58
2023/05/27 02:54:24;;;;;;;9.83;4.43;;;8.40;99.90;;;;;;5051469;28;20637;-57
2023/05/27 02:56:52;;;;;;;9.40;3.73;;;8.40;99.90;;;;;;5045774;28;20226;-58
2023/05/27 02:59:20;;;;;;;11.37;3.90;;;8.30;99.90;;;;;;5051349;28;20745;-58
2023/05/27 03:01:48;;;;;;;8.70;4.30;;;8.30;99.90;;;;;;5050742;28;20236;-58
2023/05/27 03:04:18;;;;;;;10.50;4.30;;;8.30;99.90;;;;;;5050273;28;20224;-58
2023/05/27 03:06:47;;;;;;;8.23;4.03;;;8.30;99.90;;;;;;5049881;28;20323;-58
2023/05/27 03:09:15;;;;;;;11.03;4.33;;;8.20;99.90;;;;;;5052655;28;20683;-58
2023/05/27 03:11:43;;;;;;;9.77;3.87;;;8.20;99.90;;;;;;5052426;28;20274;-58
2023/05/27 03:14:11;;;;;;;10.23;4.23;;;8.20;99.90;;;;;;5039954;28;20221;-58
2023/05/27 03:16:40;;;;;;;9.43;3.77;;;8.20;99.90;;;;;;5032457;28;20770;-58
2023/05/27 03:19:09;;;;;;;8.00;3.60;;;8.20;99.90;;;;;;5043555;28;20224;-58
2023/05/27 03:21:39;;;;;;;10.37;4.50;;;8.20;99.90;;;;;;5043157;28;20722;-58
2023/05/27 03:24:07;;;;;;;11.77;4.20;;;8.30;99.90;;;;;;5051116;28;20233;-58
2023/05/27 03:26:35;;;;;;;10.20;4.60;;;8.30;99.90;;;;;;5050335;28;20242;-58
2023/05/27 03:29:06;;;;;;;9.43;4.13;;;8.30;99.90;;;;;;5043090;28;20255;-58
2023/05/27 03:31:34;;;;;;;7.63;3.73;;;8.20;99.90;;;;;;5050484;28;20247;-58
2023/05/27 03:34:07;;;;;;;10.60;4.00;;;8.30;99.90;;;;;;5051031;28;20326;-58
2023/05/27 03:36:37;;;;;;;6.70;3.80;;;8.20;99.90;;;;;;5042875;28;20298;-58
2023/05/27 03:39:06;;;;;;;9.77;4.03;;;8.20;99.90;;;;;;5032370;28;20252;-58
2023/05/27 03:41:36;;;;;;;11.93;4.50;;;8.30;99.90;;;;;;5031010;28;20279;-58
2023/05/27 03:44:04;;;;;;;7.93;3.40;;;8.30;99.90;;;;;;5031051;28;20227;-57
2023/05/27 03:46:34;;;;;;;9.57;4.20;;;8.30;99.90;;;;;;5044845;28;20249;-59
2023/05/27 03:49:03;;;;;;;9.67;4.27;;;8.30;99.90;;;;;;5056098;28;20255;-58
2023/05/27 03:51:31;;;;;;;15.43;4.53;;;8.30;99.90;;;;;;5048062;28;20224;-58
2023/05/27 03:53:59;;;;;;;8.60;4.20;;;8.40;99.90;;;;;;5039862;28;20691;-58
2023/05/27 03:56:28;;;;;;;8.70;3.93;;;8.40;99.90;;;;;;5042775;28;20614;-58
2023/05/27 03:58:57;;;;;;;7.80;4.00;;;8.40;99.90;;;;;;5030809;28;20570;-57
2023/05/27 04:01:27;;;;;;;9.67;3.87;;;8.50;99.90;;;;;;5031777;28;20229;-58
2023/05/27 04:03:55;;;;;;;8.90;3.97;;;8.50;99.90;;;;;;5030926;28;20221;-58
2023/05/27 04:06:23;;;;;;;9.30;4.43;;;8.60;99.90;;;;;;5049574;28;20748;-58
2023/05/27 04:08:52;;;;;;;7.33;3.70;;;8.60;99.90;;;;;;5053413;28;20255;-58
2023/05/27 04:11:20;;;;;;;7.87;3.97;;;8.60;99.90;;;;;;5054473;28;20236;-58
2023/05/27 04:13:50;;;;;;;8.17;3.97;;;8.70;99.90;;;;;;5055483;28;20630;-58
2023/05/27 04:16:18;;;;;;;8.83;4.03;;;8.80;99.90;;;;;;5043250;28;20326;-59
2023/05/27 04:18:48;;;;;;;11.80;4.40;;;8.80;99.90;;;;;;5044810;28;20694;-58
2023/05/27 04:21:17;;;;;;;9.43;4.33;;;8.90;99.90;;;;;;5051835;28;20752;-58
2023/05/27 04:23:45;;;;;;;10.30;4.80;;;9.00;99.90;;;;;;5054158;28;20297;-58
2023/05/27 04:26:14;;;;;;;10.63;4.13;;;9.10;99.90;;;;;;5054330;28;20221;-58
2023/05/27 04:28:49;;;;;;;10.93;4.93;;;9.20;99.90;;;;;;5054112;28;20219;-58
2023/05/27 04:31:18;;;;;;;8.57;4.17;;;9.20;99.90;;;;;;5038194;28;20355;-58
2023/05/27 04:33:53;;;;;;;11.10;4.60;;;9.20;99.90;;;;;;5034074;28;20236;-58
2023/05/27 04:36:25;;;;;;;11.53;4.70;;;9.30;99.90;;;;;;5045816;28;20225;-58
2023/05/27 04:39:04;;;;;;;8.93;4.30;;;9.40;99.90;;;;;;5047859;28;20311;-59
2023/05/27 04:41:34;;;;;;;8.87;4.23;;;9.50;99.90;;;;;;5045658;28;20315;-59
2023/05/27 04:44:04;;;;;;;7.17;4.40;;;9.50;99.90;;;;;;5045293;28;20221;-59
2023/05/27 04:46:38;;;;;;;11.10;4.60;;;9.60;99.90;;;;;;5044372;28;20693;-58
2023/05/27 04:49:08;;;;;;;9.57;4.23;;;9.70;99.90;;;;;;5047659;28;20670;-59
2023/05/27 04:51:37;;;;;;;8.87;4.43;;;9.80;99.90;;;;;;5043692;28;20224;-58
2023/05/27 04:54:05;;;;;;;12.07;4.67;;;9.90;99.90;;;;;;5043448;28;20264;-59
2023/05/27 04:56:35;;;;;;;11.80;4.67;;;10.00;99.90;;;;;;5043421;28;20214;-59
2023/05/27 04:59:05;;;;;;;10.57;4.27;;;10.10;99.90;;;;;;5042762;28;20483;-59
2023/05/27 05:01:48;;;;;;;13.10;4.33;;;10.20;99.90;;;;;;5041560;28;20225;-58
2023/05/27 05:04:24;;;;;;;13.43;4.87;;;10.30;99.90;;;;;;5046157;28;20746;-59
2023/05/27 05:06:56;;;;;;;11.60;4.53;;;10.40;99.90;;;;;;5045957;28;20229;-59
2023/05/27 05:09:25;;;;;;;11.53;4.63;;;10.50;99.90;;;;;;5042724;28;20271;-59
2023/05/27 05:11:54;;;;;;;10.07;4.33;;;10.60;99.90;;;;;;5044028;28;20702;-58
2023/05/27 05:14:23;;;;;;;12.10;4.57;;;10.70;99.90;;;;;;5043937;28;20724;-59
2023/05/27 05:16:52;;;;;;;12.63;4.90;;;10.80;99.90;;;;;;5039138;28;20226;-59
2023/05/27 05:19:20;;;;;;;11.40;4.63;;;10.90;99.90;;;;;;5046023;28;20230;-59
2023/05/27 05:21:48;;;;;;;12.40;4.80;;;11.00;99.90;;;;;;5045434;28;20349;-59
2023/05/27 05:24:16;;;;;;;13.50;4.53;;;11.20;99.90;;;;;;5043272;28;20225;-61
2023/05/27 05:26:45;;;;;;;14.00;4.90;;;11.30;99.90;;;;;;5039305;28;20231;-59
2023/05/27 05:29:14;;;;;;;11.47;4.70;;;11.50;99.90;;;;;;5039806;28;20751;-58
2023/05/27 05:31:45;;;;;;;12.97;4.73;;;11.60;99.90;;;;;;5050901;28;20234;-59
2023/05/27 05:34:14;;;;;;;13.57;4.87;;;11.80;99.90;;;;;;5053510;28;20226;-59
2023/05/27 05:36:42;;;;;;;14.20;4.33;;;11.90;99.90;;;;;;5050566;28;20284;-59
2023/05/27 05:39:10;;;;;;;11.30;4.70;;;12.00;99.90;;;;;;5044159;28;20312;-60
2023/05/27 05:41:43;;;;;;;11.67;4.17;;;12.00;99.90;;;;;;5049847;28;20230;-59
2023/05/27 05:44:13;;;;;;;9.67;4.37;;;12.10;99.90;;;;;;5052782;28;20222;-59
2023/05/27 05:46:43;;;;;;;12.80;4.10;;;12.20;99.90;;;;;;5040191;28;20627;-59
2023/05/27 05:49:11;;;;;;;11.10;4.70;;;12.50;99.90;;;;;;5056636;28;20639;-59
2023/05/27 05:51:44;;;;;;;13.83;4.40;;;12.60;99.90;;;;;;5049651;28;20258;-59
2023/05/27 05:54:12;;;;;;;13.40;4.80;;;12.60;99.90;;;;;;5049745;28;20582;-59
2023/05/27 05:56:44;;;;;;;12.60;4.20;;;12.80;99.90;;;;;;5046765;28;20258;-59
2023/05/27 05:59:13;;;;;;;13.03;4.33;;;12.90;99.90;;;;;;5044950;28;20230;-60
2023/05/27 06:01:42;;;;;;;12.27;4.67;;;13.10;99.90;;;;;;5041046;28;20236;-59
2023/05/27 06:04:11;;;;;;;15.93;4.80;;;13.30;99.90;;;;;;5040219;28;20219;-60
2023/05/27 06:06:43;;;;;;;12.23;4.33;;;13.50;99.90;;;;;;5044176;28;20281;-59
2023/05/27 06:09:27;;;;;;;11.87;4.17;;;13.60;99.90;;;;;;5046402;28;20231;-59
2023/05/27 06:11:59;;;;;;;15.77;4.67;;;13.70;99.90;;;;;;5052228;28;20238;-59
2023/05/27 06:14:29;;;;;;;12.57;4.20;;;13.90;99.90;;;;;;5051281;28;20223;-59
2023/05/27 06:17:01;;;;;;;12.70;4.33;;;14.20;99.90;;;;;;5043398;28;20227;-60
2023/05/27 06:19:29;;;;;;;16.43;4.70;;;14.50;99.90;;;;;;5045734;28;20622;-59
2023/05/27 06:21:57;;;;;;;12.33;3.97;;;14.60;99.90;;;;;;5045962;28;20311;-59
2023/05/27 06:24:47;;;;;;;13.00;3.97;;;14.80;99.90;;;;;;5049203;28;20302;-59
2023/05/27 06:27:21;;;;;;;13.67;4.67;;;14.80;99.90;;;;;;5040082;28;20225;-59
2023/05/27 06:29:49;;;;;;;13.97;4.53;;;14.80;99.90;;;;;;5035999;28;20242;-59
2023/05/27 06:32:28;;;;;;;14.27;4.43;;;15.00;99.90;;;;;;5048096;28;20269;-58
2023/05/27 06:34:56;;;;;;;13.30;5.00;;;15.20;99.90;;;;;;5054283;28;20246;-59
2023/05/27 06:37:24;;;;;;;14.87;4.63;;;15.40;99.90;;;;;;5046362;28;20768;-60
2023/05/27 06:39:52;;;;;;;15.07;4.70;;;15.60;99.90;;;;;;5049021;28;20557;-59
2023/05/27 06:42:22;;;;;;;14.90;4.57;;;15.60;99.90;;;;;;5044394;28;20736;-59
2023/05/27 06:45:01;;;;;;;11.33;4.23;;;15.70;99.90;;;;;;5050747;28;20213;-60
2023/05/27 06:47:32;;;;;;;13.33;4.63;;;16.10;99.90;;;;;;5031681;28;20232;-59
2023/05/27 06:50:00;;;;;;;13.20;4.67;;;16.20;99.90;;;;;;5050201;28;20318;-59
2023/05/27 06:52:29;;;;;;;15.87;4.37;;;16.60;99.90;;;;;;5051622;28;20293;-60
2023/05/27 06:55:23;;;;;;;12.03;4.03;;;16.80;99.90;;;;;;5037534;28;20243;-60
2023/05/27 06:58:14;;;;;;;9.80;3.97;;;16.80;99.90;;;;;;5036263;28;20228;-60
2023/05/27 07:01:02;;;;;;;14.97;5.07;;;17.00;99.90;;;;;;5042247;28;20239;-60
2023/05/27 07:03:42;;;;;;;13.70;4.20;;;17.00;99.90;;;;;;5035907;28;20683;-58
2023/05/27 07:06:16;;;;;;;15.07;4.83;;;17.20;99.90;;;;;;5038224;28;20252;-60
2023/05/27 07:08:48;;;;;;;14.43;4.30;;;17.30;99.90;;;;;;5037521;28;20224;-60
2023/05/27 07:11:22;;;;;;;12.50;4.13;;;17.20;99.90;;;;;;5035174;28;20706;-60
2023/05/27 07:13:52;;;;;;;15.33;4.70;;;17.50;99.90;;;;;;5027091;28;20736;-60
2023/05/27 07:16:24;;;;;;;16.13;4.67;;;17.80;99.90;;;;;;5029448;28;20227;-60
2023/05/27 07:18:56;;;;;;;14.07;4.47;;;17.90;99.90;;;;;;5032822;28;20225;-60
2023/05/27 07:21:25;;;;;;;16.23;4.50;;;18.20;99.90;;;;;;5031235;28;20236;-60
2023/05/27 07:23:53;;;;;;;15.83;4.40;;;18.30;99.90;;;;;;5028736;28;20947;-59
2023/05/27 07:26:32;;;;;;;15.23;4.07;;;18.10;99.90;;;;;;5032295;28;20259;-60
2023/05/27 07:29:01;;;;;;;10.33;3.97;;;18.00;99.90;;;;;;5031512;28;20239;-61
2023/05/27 07:31:50;;;;;;;10.53;4.27;;;18.50;99.90;;;;;;5035308;28;20236;-60
2023/05/27 07:34:21;;;;;;;15.43;4.93;;;18.60;99.90;;;;;;5032814;28;20235;-60
2023/05/27 07:36:50;;;;;;;15.53;4.27;;;18.90;99.90;;;;;;5032939;28;20238;-60
2023/05/27 07:39:18;;;;;;;11.87;4.17;;;19.40;99.90;;;;;;5035967;28;20232;-60
2023/05/27 07:41:46;;;;;;;12.23;4.63;;;20.00;99.90;;;;;;5034690;28;20230;-60
2023/05/27 07:44:14;;;;;;;12.10;4.47;;;20.20;99.90;;;;;;5051376;28;20223;-60
2023/05/27 07:46:42;;;;;;;12.10;3.97;;;20.30;99.90;;;;;;5038022;28;20219;-60
2023/05/27 07:49:10;;;;;;;15.00;4.10;;;20.40;99.90;;;;;;5039241;28;20234;-60
2023/05/27 07:51:49;;;;;;;11.77;3.70;;;20.60;99.90;;;;;;5038939;28;20321;-59
2023/05/27 07:54:17;;;;;;;11.00;4.07;;;20.80;99.90;;;;;;5040029;28;20340;-60
2023/05/27 07:56:46;;;;;;;12.50;4.00;;;20.90;99.90;;;;;;5038265;28;20225;-60
2023/05/27 07:59:14;;;;;;;13.20;4.83;;;21.00;99.90;;;;;;5050997;28;20240;-60
2023/05/27 08:01:42;;;;;;;10.07;3.93;;;21.00;99.90;;;;;;5036672;28;20230;-60
2023/05/27 08:04:10;;;;;;;11.20;4.47;;;21.40;99.90;;;;;;5029065;28;21141;-60
2023/05/27 08:07:24;;;;;;;11.07;4.30;;;21.50;99.90;;;;;;5018388;28;20241;-60
2023/05/27 08:10:13;;;;;;;14.57;4.77;;;21.80;99.90;;;;;;5033764;28;21285;-60
2023/05/27 08:12:57;;;;;;;15.53;4.63;;;21.90;99.90;;;;;;5053244;28;20709;-60
2023/05/27 08:15:56;;;;;;;9.47;3.90;;;22.00;99.90;;;;;;5032990;28;20243;-59
2023/05/27 08:18:33;;;;;;;12.30;4.87;;;22.40;99.90;;;;;;5034135;28;20226;-60
2023/05/27 08:21:14;;;;;;;14.90;4.83;;;22.40;99.90;;;;;;5031347;28;20255;-60
2023/05/27 08:24:00;;;;;;;14.90;4.57;;;22.40;99.90;;;;;;5031444;28;21206;-60
2023/05/27 08:26:49;;;;;;;11.30;3.93;;;22.40;99.90;;;;;;5004451;28;20239;-60
2023/05/27 08:29:36;;;;;;;11.13;3.93;;;22.60;99.90;;;;;;5033744;28;21390;-60
2023/05/27 08:32:23;;;;;;;11.17;4.17;;;22.70;99.90;;;;;;5031773;28;20241;-60
2023/05/27 08:34:51;;;;;;;10.90;4.20;;;22.80;99.90;;;;;;5031384;28;20838;-60
2023/05/27 08:37:19;;;;;;;9.43;3.90;;;23.20;99.90;;;;;;5031751;28;20328;-61
2023/05/27 08:39:50;;;;;;;10.90;4.17;;;23.80;99.90;;;;;;5033188;28;21375;-61
2023/05/27 08:42:27;;;;;;;12.47;4.03;;;23.40;99.90;;;;;;5032135;28;20579;-61
2023/05/27 08:44:56;;;;;;;9.93;4.10;;;23.30;99.90;;;;;;5031345;28;20227;-60
2023/05/27 08:47:24;;;;;;;11.67;4.37;;;23.70;99.90;;;;;;5034001;28;20242;-60
2023/05/27 08:49:52;;;;;;;11.07;3.87;;;23.80;99.90;;;;;;5036112;28;20873;-60
2023/05/27 08:52:20;;;;;;;12.77;4.83;;;23.80;99.90;;;;;;5034172;28;20762;-60
2023/05/27 08:54:50;;;;;;;12.37;4.20;;;24.30;99.90;;;;;;5035286;28;20742;-61
2023/05/27 08:57:23;;;;;;;11.40;4.50;;;24.50;99.90;;;;;;5035780;28;20922;-60
2023/05/27 08:59:52;;;;;;;10.73;3.80;;;24.50;99.90;;;;;;5035332;28;20281;-59
2023/05/27 09:02:22;;;;;;;9.37;3.97;;;24.60;99.90;;;;;;5032656;28;20341;-60
2023/05/27 09:04:51;;;;;;;12.80;4.60;;;24.60;99.90;;;;;;5034257;28;20251;-60
2023/05/27 09:07:20;;;;;;;14.40;4.33;;;24.20;99.90;;;;;;5035893;28;20726;-61
2023/05/27 09:09:57;;;;;;;14.27;4.20;;;24.50;99.90;;;;;;5036260;28;20981;-60
2023/05/27 09:12:27;;;;;;;10.67;4.00;;;24.60;99.90;;;;;;5033672;28;20256;-60
2023/05/27 09:14:55;;;;;;;12.30;4.13;;;24.40;99.90;;;;;;5034917;28;20225;-60
2023/05/27 09:17:24;;;;;;;14.07;4.67;;;23.80;99.90;;;;;;5037670;28;20225;-60
2023/05/27 09:19:54;;;;;;;12.17;3.90;;;23.40;99.90;;;;;;5033613;28;20227;-60
2023/05/27 09:22:23;;;;;;;13.67;4.20;;;22.90;99.90;;;;;;5036520;28;20741;-60
2023/05/27 09:24:54;;;;;;;12.93;4.37;;;22.50;99.90;;;;;;5030584;28;20291;-60
2023/05/27 09:27:27;;;;;;;10.13;4.07;;;22.10;99.90;;;;;;5035246;28;20224;-60
2023/05/27 09:29:55;;;;;;;13.23;4.33;;;21.80;99.90;;;;;;5034598;28;20569;-59
2023/05/27 09:32:28;;;;;;;8.57;3.33;;;21.70;99.90;;;;;;5034282;28;20228;-60
2023/05/27 09:34:56;;;;;;;12.47;3.53;;;21.50;99.90;;;;;;5031336;28;20322;-59
2023/05/27 09:37:31;;;;;;;12.67;4.20;;;21.40;99.90;;;;;;5033118;28;20609;-59
2023/05/27 09:40:00;;;;;;;11.00;4.00;;;22.10;99.90;;;;;;5034967;28;20223;-60
2023/05/27 09:42:39;;;;;;;11.83;4.47;;;23.00;99.90;;;;;;5034274;28;20708;-60
2023/05/27 09:45:11;;;;;;;9.60;4.10;;;23.60;99.90;;;;;;5033354;28;20758;-60
2023/05/27 09:47:41;;;;;;;10.53;4.07;;;24.40;99.90;;;;;;5032370;28;20229;-60
2023/05/27 09:50:14;;;;;;;10.97;3.93;;;24.90;99.90;;;;;;5049915;28;20235;-60
2023/05/27 09:52:43;;;;;;;10.90;4.07;;;24.90;99.90;;;;;;5036958;28;20667;-61
2023/05/27 09:55:20;;;;;;;13.70;4.37;;;25.10;99.90;;;;;;5042408;28;20846;-60
2023/05/27 09:57:50;;;;;;;11.53;3.90;;;24.90;99.90;;;;;;5046317;28;20684;-61
2023/05/27 10:00:20;;;;;;;12.47;4.50;;;25.10;99.90;;;;;;5042000;28;20237;-60
2023/05/27 10:02:49;;;;;;;11.20;4.27;;;25.30;99.90;;;;;;5045330;28;20675;-60
2023/05/27 10:05:20;;;;;;;10.83;4.13;;;25.60;99.90;;;;;;5042293;28;20261;-60
2023/05/27 10:07:48;;;;;;;9.03;3.93;;;25.70;99.90;;;;;;5045008;28;20267;-61
2023/05/27 10:10:20;;;;;;;10.87;3.90;;;25.90;99.90;;;;;;5042551;28;20696;-59
2023/05/27 10:12:53;;;;;;;10.97;4.23;;;25.90;99.90;;;;;;5046284;28;20554;-60
2023/05/27 10:15:23;;;;;;;13.60;4.60;;;26.50;99.90;;;;;;5039628;28;21118;-61
2023/05/27 10:17:55;;;;;;;12.17;4.43;;;26.80;99.90;;;;;;5029706;28;20658;-61
2023/05/27 10:20:31;;;;;;;11.43;4.37;;;26.70;99.90;;;;;;5034349;28;20710;-61
2023/05/27 10:23:11;;;;;;;13.20;4.47;;;26.30;99.90;;;;;;5030575;28;20234;-61
2023/05/27 10:25:40;;;;;;;10.43;4.40;;;26.00;99.90;;;;;;5031553;28;20585;-61
2023/05/27 10:28:10;;;;;;;11.57;4.23;;;26.10;99.90;;;;;;5045130;28;20219;-61
2023/05/27 10:30:45;;;;;;;11.67;4.27;;;25.90;99.90;;;;;;5042704;28;20234;-60
2023/05/27 10:33:14;;;;;;;12.00;4.47;;;26.10;99.90;;;;;;5038670;28;20237;-59
2023/05/27 10:35:43;;;;;;;10.97;4.17;;;26.00;99.90;;;;;;5032156;28;20702;-60
2023/05/27 10:38:19;;;;;;;10.27;4.30;;;26.10;99.90;;;;;;5033505;28;20251;-61
2023/05/27 10:40:48;;;;;;;10.60;3.83;;;26.30;99.90;;;;;;5042629;28;20227;-60
2023/05/27 10:43:19;;;;;;;10.17;3.80;;;26.50;99.90;;;;;;5044168;28;20310;-58
2023/05/27 10:45:47;;;;;;;14.17;4.93;;;25.90;99.90;;;;;;5042154;28;20306;-56
2023/05/27 10:48:28;;;;;;;11.97;4.97;;;25.80;99.90;;;;;;5035212;28;20230;-56
2023/05/27 10:50:58;;;;;;;10.10;4.10;;;26.40;98.60;;;;;;5050485;28;20326;-52
2023/05/27 10:53:27;;;;;;;13.03;4.33;;;27.10;99.90;;;;;;5032536;28;20293;-52
2023/05/27 10:55:59;;;;;;;12.83;4.43;;;27.90;99.30;;;;;;5035145;28;20579;-58
2023/05/27 10:58:29;;;;;;;14.27;4.70;;;28.30;98.50;;;;;;5041433;28;20232;-54
2023/05/27 11:00:58;;;;;;;12.00;4.53;;;28.60;98.70;;;;;;5052413;28;20232;-52
2023/05/27 11:03:28;;;;;;;112.30;11.10;;;28.90;98.50;;;;;;5052434;28;20233;-52
2023/05/27 11:06:01;;;;;;;68.23;8.67;;;28.30;96.90;;;;;;5049913;28;20678;-53
2023/05/27 11:08:29;;;;;;;13.07;5.00;;;28.20;98.30;;;;;;5045488;28;20220;-51
2023/05/27 11:11:02;;;;;;;36.77;5.90;;;28.40;93.90;;;;;;5037893;28;20302;-56
2023/05/27 11:13:36;;;;;;;13.47;4.60;;;28.20;96.90;;;;;;5041971;28;20228;-57
2023/05/27 11:16:05;;;;;;;22.07;4.87;;;27.90;96.60;;;;;;5035135;28;20234;-57
2023/05/27 11:18:37;;;;;;;9.40;4.80;;;27.70;96.10;;;;;;5039399;28;20318;-58
2023/05/27 11:21:06;;;;;;;12.57;5.03;;;27.40;95.30;;;;;;5043231;28;20475;-57
2023/05/27 11:23:39;;;;;;;18.23;5.33;;;27.30;95.70;;;;;;5052420;28;20310;-53
2023/05/27 11:26:15;;;;;;;17.03;4.73;;;27.30;95.60;;;;;;5038251;28;20631;-53
2023/05/27 11:28:48;;;;;;;15.07;4.83;;;27.30;96.70;;;;;;5032329;28;20216;-55
2023/05/27 11:31:17;;;;;;;11.77;4.70;;;27.70;96.70;;;;;;5035970;28;20691;-56
2023/05/27 11:33:47;;;;;;;79.53;9.33;;;27.70;94.90;;;;;;5052399;28;20227;-56
2023/05/27 11:36:16;;;;;;;33.67;6.67;;;27.90;97.20;;;;;;5056018;28;20753;-57
2023/05/27 11:38:52;;;;;;;15.63;4.53;;;28.20;96.80;;;;;;5051204;28;20695;-57
2023/05/27 11:41:21;;;;;;;11.50;4.40;;;28.50;96.00;;;;;;5052287;28;20310;-56
2023/05/27 11:43:56;;;;;;;13.87;5.13;;;28.00;94.80;;;;;;5052248;28;20708;-58
2023/05/27 11:46:33;;;;;;;14.77;3.97;;;27.30;94.50;;;;;;5050986;28;20330;-56
2023/05/27 11:49:02;;;;;;;12.07;4.37;;;26.40;97.30;;;;;;5055188;28;20235;-57
2023/05/27 11:51:31;;;;;;;14.30;4.80;;;26.30;96.70;;;;;;5047470;28;20223;-55
2023/05/27 11:54:00;;;;;;;11.70;4.57;;;24.80;96.10;;;;;;5046866;28;20227;-56
2023/05/27 11:56:29;;;;;;;13.47;4.83;;;25.10;99.80;;;;;;5045140;28;20220;-57
2023/05/27 11:58:59;;;;;;;15.60;4.63;;;25.50;99.00;;;;;;5041797;28;20575;-58
2023/05/27 12:01:29;;;;;;;10.57;4.30;;;26.20;99.90;;;;;;5031594;28;20244;-59
2023/05/27 12:03:57;;;;;;;14.20;4.47;;;26.40;97.30;;;;;;5039082;28;20228;-57
2023/05/27 12:06:25;;;;;;;8.30;3.90;;;26.10;98.10;;;;;;5042800;28;20360;-57
2023/05/27 12:08:53;;;;;;;10.97;3.80;;;26.30;99.20;;;;;;5043266;28;20224;-58
2023/05/27 12:11:21;;;;;;;13.63;4.00;;;26.30;98.50;;;;;;5046343;28;20234;-59
2023/05/27 12:13:51;;;;;;;8.53;3.93;;;26.20;99.90;;;;;;5037011;28;20721;-58
2023/05/27 12:16:20;;;;;;;10.73;4.50;;;26.30;98.40;;;;;;5032185;28;20306;-58
2023/05/27 12:18:48;;;;;;;12.03;4.20;;;26.10;98.30;;;;;;5041111;28;20304;-58
2023/05/27 12:21:17;;;;;;;10.47;4.47;;;25.60;98.30;;;;;;5051599;28;20326;-58
2023/05/27 12:23:45;;;;;;;10.03;4.70;;;25.70;99.60;;;;;;5051878;28;20640;-58
2023/05/27 12:26:14;;;;;;;10.70;4.23;;;25.60;99.90;;;;;;5051923;28;20556;-59
2023/05/27 12:28:43;;;;;;;11.10;4.33;;;25.30;99.90;;;;;;5052522;28;20317;-59
2023/05/27 12:31:11;;;;;;;12.13;4.53;;;25.10;99.90;;;;;;5053940;28;20235;-58
2023/05/27 12:33:41;;;;;;;8.93;4.07;;;25.10;99.90;;;;;;5055217;28;20701;-59
2023/05/27 12:36:10;;;;;;;8.63;3.77;;;25.10;99.90;;;;;;5058580;28;20235;-56
2023/05/27 12:38:38;;;;;;;10.60;4.67;;;25.20;99.90;;;;;;5042179;28;20233;-58
2023/05/27 12:41:07;;;;;;;16.87;5.13;;;25.30;99.90;;;;;;5046666;28;20721;-59
2023/05/27 12:43:35;;;;;;;12.27;4.80;;;24.90;99.90;;;;;;5044811;28;20231;-58
2023/05/27 12:46:03;;;;;;;8.50;4.00;;;24.80;99.90;;;;;;5045868;28;20242;-58
2023/05/27 12:48:31;;;;;;;8.53;4.00;;;24.90;99.90;;;;;;5047655;28;20562;-58
2023/05/27 12:51:00;;;;;;;12.03;4.17;;;24.70;99.90;;;;;;5049127;28;20589;-59
2023/05/27 12:53:28;;;;;;;10.97;4.00;;;24.60;99.90;;;;;;5052858;28;20257;-58
2023/05/27 12:55:56;;;;;;;15.20;4.70;;;24.80;99.90;;;;;;5040480;28;20227;-57
2023/05/27 12:58:25;;;;;;;13.03;4.47;;;24.70;99.90;;;;;;5050126;28;20223;-59
2023/05/27 13:00:54;;;;;;;10.97;4.50;;;24.60;99.90;;;;;;5048004;28;20231;-56
2023/05/27 13:03:22;;;;;;;12.07;4.27;;;24.70;99.90;;;;;;5043913;28;20517;-58